Latest Weather Observations for Goulburn Airport

IDN60901

Issued at 4:55 am EDT Tuesday 21 October 2014 (issued every 10 minutes, with the page automatically refreshed every 10 minutes)

About weather observations | Map of Canberra area stations | Latest observations for Canberra area | Other Formats
Station Details ID: 070330 Name: GOULBURN AIRPORT AWS Lat: -34.81 Lon: 149.73 Height: 640.0 m
Data from the previous 72 hours. | See also: Recent months at Goulburn Airport
Date/Time
EDT
Tmp

°C
App
Tmp
°C
Dew
Point
°C
Rel
Hum
%
Delta-T

°C
Wind Press
QNH
hPa
Press
MSL
hPa
Rain
since
9 am
mm
Dir
 
Spd
km/h
Gust
km/h
Spd
kts
Gust
kts
21/04:30am 8.7 5.8 6.5 86 1.1 E 11 15 6 8 1030.8 1030.3 0.0
21/04:00am 8.7 5.4 6.5 86 1.0 E 13 22 7 12 1031.0 1030.5 0.0
21/03:30am 8.7 5.1 6.7 87 1.0 E 15 22 8 12 1031.1 1030.6 0.0
21/03:00am 8.7 4.2 6.8 88 0.9 E 20 28 11 15 1031.2 1030.7 0.0
21/02:30am 8.8 4.9 7.3 90 0.7 ESE 17 24 9 13 1031.2 1030.7 0.0
21/02:00am 9.1 4.8 7.1 87 1.0 ESE 19 26 10 14 1031.2 1030.7 0.0
21/01:30am 9.2 4.9 7.0 86 1.1 E 19 24 10 13 1031.4 1030.9 0.0
21/01:00am 9.2 4.9 7.0 86 1.1 ESE 19 28 10 15 1031.6 1031.0 0.0
21/12:58am 9.2 4.9 7.2 87 1.0 ESE 19 28 10 15 1031.6 1031.0 0.0
21/12:30am 9.2 4.3 7.0 86 1.1 ESE 22 30 12 16 1031.8 1031.3 0.0
21/12:00am 9.3 4.0 6.9 85 1.2 ESE 24 32 13 17 1031.8 1031.3 0.0
 
Date/Time
EDT
Tmp

°C
App
Tmp
°C
Dew
Point
°C
Rel
Hum
%
Delta-T

°C
Wind Press
QNH
hPa
Press
MSL
hPa
Rain
since
9 am
mm
Dir
 
Spd
km/h
Gust
km/h
Spd
kts
Gust
kts
20/11:44pm 9.4 4.1 7.0 85 1.2 ESE 24 32 13 17 1031.9 1031.4 0.0
20/11:30pm 9.4 3.3 6.8 84 1.3 ESE 28 39 15 21 1032.0 1031.5 0.0
20/11:00pm 9.4 3.8 7.0 85 1.2 ESE 26 35 14 19 1031.9 1031.4 0.0
20/10:30pm 9.4 4.6 7.5 88 0.9 E 22 30 12 16 1032.0 1031.5 0.0
20/10:00pm 9.6 5.2 7.4 86 1.1 ESE 20 26 11 14 1032.1 1031.6 0.0
20/09:30pm 9.4 5.1 7.0 85 1.2 ESE 19 26 10 14 1032.0 1031.5 0.0
20/09:00pm 9.4 5.1 7.0 85 1.2 E 19 28 10 15 1031.9 1031.4 0.0
20/08:30pm 9.8 4.6 7.2 84 1.3 ESE 24 30 13 16 1031.4 1030.9 0.0
20/08:00pm 9.9 5.5 7.2 83 1.3 ESE 20 24 11 13 1031.1 1030.6 0.0
20/07:56pm 9.9 5.0 7.0 82 1.4 E 22 32 12 17 1031.0 1030.5 0.0
20/07:30pm 10.1 5.6 6.8 80 1.6 ESE 20 28 11 15 1030.8 1030.3 0.0
20/07:00pm 10.2 5.7 6.9 80 1.6 ESE 20 28 11 15 1030.8 1030.3 0.0
20/06:59pm 10.2 5.7 6.9 80 1.6 ESE 20 28 11 15 1030.8 1030.3 0.0
20/06:30pm 10.5 5.4 7.7 83 1.4 ESE 24 32 13 17 1030.6 1030.1 0.0
20/06:00pm 10.9 5.5 8.0 82 1.4 ESE 26 35 14 19 1030.3 1029.7 0.0
20/05:30pm 11.1 6.0 7.8 80 1.7 ESE 24 32 13 17 1030.2 1029.6 0.0
20/05:00pm 12.0 6.8 8.8 81 1.6 ESE 26 33 14 18 1030.0 1029.4 0.0
20/04:30pm 11.5 7.2 9.2 86 1.2 ESE 22 30 12 16 1029.9 1029.3 0.0
20/04:00pm 11.8 7.0 8.8 82 1.5 ESE 24 30 13 16 1030.0 1029.4 0.0
20/03:45pm 11.8 6.2 8.8 82 1.5 ESE 28 33 15 18 1030.0 1029.4 0.0
20/03:30pm 13.6 9.6 8.9 73 2.5 E 20 32 11 17 1029.9 1029.3 0.0
20/03:00pm 13.4 8.6 8.9 74 2.3 ESE 24 33 13 18 1030.0 1029.4 0.0
20/02:30pm 14.0 9.1 8.6 70 2.8 ESE 24 33 13 18 1029.9 1029.3 0.0
20/02:00pm 14.3 9.5 8.9 70 2.8 E 24 30 13 16 1030.1 1029.5 0.0
20/01:30pm 13.9 9.0 8.5 70 2.8 ESE 24 32 13 17 1030.3 1029.7 0.0
20/01:00pm 14.1 9.6 8.5 69 2.9 ESE 22 32 12 17 1030.3 1029.7 0.0
20/12:30pm 13.9 9.0 8.3 69 2.9 ESE 24 33 13 18 1030.5 1030.0 0.0
20/12:14pm 13.8 9.2 8.2 69 2.9 E 22 32 12 17 1030.6 1030.1 0.0
20/12:00pm 14.2 10.1 8.8 70 2.8 E 20 28 11 15 1030.8 1030.3 0.0
20/11:30am 11.9 6.6 8.6 80 1.7 ESE 26 33 14 18 1031.1 1030.6 0.0
20/11:01am 12.9 7.7 9.0 77 2.0 ESE 26 32 14 17 1030.8 1030.3 0.0
20/11:00am 12.9 7.7 9.0 77 2.0 ESE 26 32 14 17 1030.7 1030.2 0.0
20/10:35am 13.7 9.4 9.4 75 2.3 E 22 28 12 15 1030.6 1030.1 0.0
20/10:30am 13.8 9.5 9.5 75 2.3 E 22 28 12 15 1030.6 1030.1 0.0
20/10:00am 13.0 8.3 9.1 77 2.0 E 24 32 13 17 1030.5 1030.0 0.0
20/09:30am 12.7 8.1 9.5 81 1.7 E 24 32 13 17 1030.1 1029.5 0.0
20/09:00am 13.2 8.6 9.8 80 1.8 ESE 24 32 13 17 1029.6 1029.1 0.0
20/08:30am 12.9 8.8 10.1 83 1.5 E 22 35 12 19 1029.0 1028.5 0.0
20/08:00am 13.3 9.0 10.7 84 1.4 E 24 30 13 16 1028.5 1027.9 0.0
20/07:30am 13.4 10.2 11.3 87 1.1 E 19 24 10 13 1027.9 1027.4 0.0
20/07:07am 13.0 11.0 11.6 91 0.8 ESE 13 20 7 11 1027.3 1026.7 0.0
20/07:00am 12.3 10.1 10.9 91 0.8 ESE 13 19 7 10 1027.2 1026.6 0.0
20/06:30am 10.2 8.1 8.1 87 1.1 ESE 9 15 5 8 1026.1 1025.5 0.0
20/06:00am 8.6 6.6 6.1 84 1.2 NNW 6 7 3 4 1025.4 1024.8 0.0
20/05:30am 8.7 6.1 7.6 93 0.5 SE 11 13 6 7 1025.2 1024.6 0.0
20/05:00am 8.2 6.7 6.7 90 0.7 N 4 7 2 4 1024.2 1023.6 0.0
20/04:30am 8.3 6.4 6.8 90 0.7 N 6 9 3 5 1024.0 1023.4 0.0
20/04:00am 9.0 8.4 7.5 90 0.7 CALM 0 0 0 0 1024.0 1023.4 0.0
20/03:30am 8.8 8.1 7.1 89 0.8 CALM 0 0 0 0 1024.1 1023.5 0.0
20/03:00am 9.3 8.8 7.7 90 0.8 CALM 0 0 0 0 1024.2 1023.6 0.0
20/02:30am 9.1 8.5 7.2 88 0.9 CALM 0 0 0 0 1024.4 1023.8 0.0
20/02:00am 9.5 8.5 7.4 87 1.0 SE 2 6 1 3 1024.7 1024.1 0.0
20/01:30am 10.3 8.7 8.1 86 1.1 ESE 6 7 3 4 1025.1 1024.5 0.0
20/01:00am 10.4 9.1 7.6 83 1.4 NNE 4 7 2 4 1025.0 1024.4 0.0
20/12:30am 12.5 10.9 8.8 78 1.9 N 7 15 4 8 1025.4 1024.8 0.0
20/12:00am 13.9 11.1 8.7 71 2.7 NNW 13 15 7 8 1025.4 1024.8 0.0
 
Date/Time
EDT
Tmp

°C
App
Tmp
°C
Dew
Point
°C
Rel
Hum
%
Delta-T

°C
Wind Press
QNH
hPa
Press
MSL
hPa
Rain
since
9 am
mm
Dir
 
Spd
km/h
Gust
km/h
Spd
kts
Gust
kts
19/11:30pm 12.0 10.0 8.5 79 1.8 N 9 13 5 7 1025.4 1024.8 0.0
19/11:00pm 15.2 11.9 9.6 69 3.0 WNW 17 19 9 10 1025.7 1025.1 0.0
19/10:30pm 15.3 11.6 9.4 68 3.1 WNW 19 22 10 12 1025.4 1024.8 0.0
19/10:00pm 15.2 12.0 9.8 70 2.9 WNW 17 20 9 11 1025.4 1024.8 0.0
19/09:30pm 13.3 11.9 9.5 78 2.0 NW 7 11 4 6 1025.5 1024.9 0.0
19/09:00pm 13.2 11.9 9.1 76 2.1 S 6 7 3 4 1025.2 1024.6 0.0
19/08:30pm 14.0 13.7 8.6 70 2.8 CALM 0 0 0 0 1024.7 1024.1 0.0
19/08:00pm 16.1 15.5 9.1 63 3.7 NW 2 7 1 4 1024.5 1023.9 0.0
19/07:30pm 19.0 18.8 8.9 52 5.5 CALM 0 6 0 3 1024.3 1023.7 0.0
19/07:00pm 19.8 18.5 10.0 53 5.4 NNW 7 7 4 4 1024.1 1023.5 0.0
19/06:30pm 20.4 18.0 10.2 52 5.7 NW 13 19 7 10 1023.9 1023.3 0.0
19/06:00pm 22.5 20.0 10.9 48 6.6 WNW 15 22 8 12 1023.8 1023.2 0.0
19/05:30pm 22.9 19.1 9.7 43 7.4 W 20 26 11 14 1023.6 1023.0 0.0
19/05:00pm 23.3 19.7 10.7 45 7.2 WNW 20 24 11 13 1023.6 1023.0 0.0
19/04:30pm 23.6 19.9 9.6 41 7.8 WNW 19 24 10 13 1023.8 1023.2 0.0
19/04:00pm 23.5 19.5 9.1 40 8.0 WNW 20 26 11 14 1023.8 1023.2 0.0
19/03:30pm 23.7 20.3 11.4 46 7.1 W 20 28 11 15 1024.0 1023.4 0.0
19/03:00pm 23.4 19.8 10.5 44 7.3 W 20 26 11 14 1024.2 1023.6 0.0
19/02:30pm 22.8 18.6 8.1 39 8.0 WNW 20 28 11 15 1024.7 1024.1 0.0
19/02:00pm 22.7 19.4 10.8 47 6.7 W 19 26 10 14 1025.1 1024.5 0.0
19/01:30pm 22.6 19.4 11.4 49 6.4 W 19 20 10 11 1025.6 1025.0 0.0
19/01:00pm 21.8 18.4 11.2 51 6.0 W 20 30 11 16 1025.7 1025.1 0.0
19/12:30pm 21.2 16.7 8.5 44 6.9 WNW 22 28 12 15 1025.9 1025.3 0.0
19/12:00pm 20.8 17.0 9.7 49 6.1 W 20 26 11 14 1026.0 1025.4 0.0
19/11:30am 20.2 15.2 8.2 46 6.4 W 24 30 13 16 1026.6 1026.0 0.0
19/11:00am 19.7 14.5 7.4 45 6.4 W 24 32 13 17 1026.9 1026.3 0.0
19/10:30am 19.2 14.3 7.0 45 6.4 W 22 30 12 16 1027.1 1026.5 0.0
19/10:00am 17.8 14.1 8.1 53 5.1 NW 17 22 9 12 1027.4 1026.8 0.0
19/09:30am 15.8 13.1 9.0 64 3.6 WNW 13 19 7 10 1027.6 1027.1 0.0
19/09:00am 13.9 11.0 8.3 69 2.9 NNW 13 17 7 9 1027.7 1027.2 0.0
19/08:30am 11.0 9.4 8.0 82 1.5 N 6 9 3 5 1027.7 1027.2 0.0
19/08:00am 9.4 8.0 7.3 87 1.0 NW 4 9 2 5 1027.7 1027.2 0.0
19/07:30am 7.7 7.1 7.3 97 0.2 CALM 0 0 0 0 1027.2 1026.6 0.0
19/07:00am 4.5 3.2 3.9 96 0.3 CALM 0 0 0 0 1027.0 1026.4 0.0
19/06:30am 3.3 1.7 2.7 96 0.3 CALM 0 0 0 0 1026.6 1026.0 0.0
19/06:00am 3.3 1.7 2.7 96 0.2 CALM 0 0 0 0 1026.3 1025.8 0.0
19/05:30am 3.2 1.6 2.5 95 0.3 CALM 0 0 0 0 1026.1 1025.5 0.0
19/05:00am 4.0 2.6 3.3 95 0.3 CALM 0 0 0 0 1026.2 1025.6 0.0
19/04:30am 4.0 2.6 3.3 95 0.3 CALM 0 0 0 0 1026.3 1025.8 0.0
19/04:00am 4.4 2.3 3.7 95 0.3 E 4 7 2 4 1026.6 1026.0 0.0
19/03:30am 5.3 4.1 4.6 95 0.3 CALM 0 0 0 0 1026.8 1026.2 0.0
19/03:00am 5.4 4.2 4.5 94 0.4 CALM 0 0 0 0 1026.7 1026.1 0.0
19/02:30am 6.2 4.8 5.3 94 0.4 NW 2 6 1 3 1026.8 1026.2 0.0
19/02:00am 6.1 3.9 5.2 94 0.4 N 6 7 3 4 1026.9 1026.3 0.0
19/01:30am 5.9 4.8 5.0 94 0.4 CALM 0 0 0 0 1027.1 1026.5 0.0
19/01:00am 6.2 4.0 5.2 93 0.5 E 6 7 3 4 1027.3 1026.7 0.0
19/12:30am 6.7 5.6 5.3 91 0.6 CALM 0 0 0 0 1027.7 1027.2 0.0
19/12:00am 7.4 5.3 6.0 91 0.7 WSW 6 7 3 4 1027.8 1027.3 0.0
 
Date/Time
EDT
Tmp

°C
App
Tmp
°C
Dew
Point
°C
Rel
Hum
%
Delta-T

°C
Wind Press
QNH
hPa
Press
MSL
hPa
Rain
since
9 am
mm
Dir
 
Spd
km/h
Gust
km/h
Spd
kts
Gust
kts
18/11:30pm 8.2 6.0 5.5 83 1.3 N 6 7 3 4 1027.8 1027.3 0.0
18/11:00pm 10.6 7.6 7.8 83 1.4 NNE 13 17 7 9 1027.7 1027.2 0.0
18/10:30pm 10.8 8.3 8.2 84 1.3 NNE 11 15 6 8 1027.9 1027.4 0.0
18/10:00pm 11.4 8.6 8.6 83 1.4 NNE 13 17 7 9 1028.0 1027.5 0.0
18/09:30pm 10.6 10.2 8.4 86 1.1 CALM 0 0 0 0 1027.9 1027.4 0.0
18/09:00pm 10.3 8.6 7.7 84 1.3 NNE 6 9 3 5 1027.8 1027.3 0.0
18/08:30pm 9.7 9.0 7.0 83 1.3 CALM 0 7 0 4 1027.6 1027.1 0.0
18/08:00pm 11.4 10.5 7.7 78 1.8 SSW 2 6 1 3 1027.1 1026.5 0.0
18/07:30pm 12.0 9.6 6.9 71 2.5 W 9 9 5 5 1026.6 1026.0 0.0
18/07:00pm 15.6 13.2 8.6 63 3.7 W 11 11 6 6 1026.3 1025.8 0.0
18/06:30pm 18.0 15.9 6.8 48 5.8 W 7 9 4 5 1026.2 1025.6 0.0
18/06:00pm 18.8 16.5 4.6 39 7.0 W 6 9 3 5 1025.9 1025.3 0.0
18/05:30pm 19.3 16.8 3.5 35 7.7 NW 6 11 3 6 1025.9 1025.3 0.0
18/05:00pm 18.5 16.0 5.0 41 6.7 NNW 7 13 4 7 1025.8 1025.2 0.0
18/04:30pm 19.3 16.8 3.9 36 7.6 WSW 6 9 3 5 1026.0 1025.4 0.0
18/04:00pm 18.8 15.3 3.4 36 7.4 WNW 11 17 6 9 1026.2 1025.6 0.0
18/03:30pm 19.0 15.4 3.2 35 7.6 WSW 11 22 6 12 1026.4 1025.9 0.0
18/03:00pm 18.3 16.1 6.2 45 6.1 SSW 7 13 4 7 1026.7 1026.1 0.0
18/02:30pm 17.8 14.9 4.7 42 6.5 SW 9 13 5 7 1027.1 1026.5 0.0
18/02:00pm 18.1 15.2 6.3 46 6.0 SSW 11 19 6 10 1027.4 1026.8 0.0
18/01:30pm 17.4 14.8 4.4 42 6.4 W 7 11 4 6 1027.8 1027.3 0.0
18/01:00pm 16.9 14.4 4.9 45 5.9 SE 7 11 4 6 1027.9 1027.4 0.0
18/12:30pm 16.5 14.1 4.2 44 6.0 N 6 11 3 6 1028.1 1027.6 0.0
18/12:00pm 16.3 14.3 6.2 51 5.1 NNE 6 15 3 8 1028.7 1028.1 0.0
18/11:30am 16.0 14.0 7.0 55 4.6 ESE 7 11 4 6 1029.1 1028.6 0.0
18/11:00am 14.5 12.2 5.8 56 4.3 ENE 7 15 4 8 1029.3 1028.8 0.0
18/10:30am 13.5 10.3 5.2 57 4.0 NE 11 19 6 10 1029.6 1029.1 0.0
18/10:00am 12.5 8.6 5.2 61 3.5 NE 15 24 8 13 1029.9 1029.3 0.0
18/09:30am 11.9 8.1 5.8 66 3.0 NE 15 22 8 12 1029.9 1029.3 0.0
18/09:00am 10.8 8.7 6.7 76 2.0 ENE 7 22 4 12 1029.7 1029.2 0.0
18/08:30am 7.9 6.6 7.6 98 0.1 SW 4 6 2 3 1029.5 1029.0 0.0
18/08:20am 7.1 5.2 6.8 98 0.1 WSW 6 7 3 4 1029.5 1029.0 0.0
18/08:00am 5.3 4.2 5.0 98 0.1 CALM 0 0 0 0 1029.2 1028.7 0.0
18/07:30am 2.9 1.3 2.6 98 0.1 CALM 0 0 0 0 1029.1 1028.6 0.0
18/07:00am 1.6 -0.2 1.2 97 0.2 CALM 0 0 0 0 1029.0 1028.5 0.0
18/06:30am 0.5 -2.6 0.1 97 0.2 SE 6 7 3 4 1029.0 1028.5 0.0
18/06:11am 0.1 -3.3 -0.5 96 0.2 ESE 7 9 4 5 1028.8 1028.2 0.0
18/06:00am 0.9 -2.4 0.3 96 0.2 S 7 9 4 5 1028.7 1028.1 0.0
18/05:57am 0.6 -2.7 0.0 96 0.2 S 7 9 4 5 1028.7 1028.1 0.0
18/05:30am 1.5 -1.1 1.1 97 0.2 SSW 4 9 2 5 1028.5 1027.9 0.0
18/05:00am 1.6 -1.9 1.0 96 0.2 SW 9 11 5 6 1028.0 1027.5 0.0

Latest Capital City Observations: Canberra | Sydney | Melbourne | Brisbane | Adelaide | Perth | Hobart | Darwin

Other Formats:

Comma delimited format used in spreadsheet applications
http://www.bom.gov.au/fwo/IDN60903/IDN60903.95716.axf

JavaScript Object Notation format (JSON) in row-major order
http://www.bom.gov.au/fwo/IDN60903/IDN60903.95716.json